Estación Meteorológica Peña el Pijo (Robertgarden) [ 01/30/23 14:51:55 CET ]

Fecha Hora Presion(HPa) Temp (°C) Humedad % Rocio (°C) Viento ( m/s) Direccion Lluvia 1Hora(mm) Lluvia 24H(mm) LLuvia Total(mm)
2010-Nov-29 01:01:17 998.800 0.5 75 -3.5         6.21
2010-Nov-29 02:05:20 998.700 -0.2 79 -3.4         6.21
2010-Nov-29 03:01:19 997.800 -0.6 82 -3.3         6.21
2010-Nov-29 04:03:20 997.500 -0.2 83 -2.7         6.21
2010-Nov-29 05:01:13 997.200 0.3 84 -2.1         6.21
2010-Nov-29 06:01:11 996.100 0.6 83 -2.0         6.21
2010-Nov-29 07:01:13 996.000 0.9 82 -1.9         6.21
2010-Nov-29 08:01:11 995.200 1.1 83 -1.5         6.21
2010-Nov-29 09:01:13 995.100 0.7 88 -1.1         6.21
2010-Nov-29 10:01:16 994.500 0.5 90 -0.9         6.21
2010-Nov-29 11:01:14 994.200 0.4 92 -0.8         6.21
2010-Nov-29 12:01:13 993.800 0.5 92 -0.7         6.21
2010-Nov-29 13:01:14 992.200 0.8 92 -0.4         6.21
2010-Nov-29 14:01:12 991.200 0.6 92 -0.6         6.21
2010-Nov-29 15:01:16 991.300 0.6 92 -0.6         6.21
2010-Nov-29 16:01:16 990.400 0.6 93 -0.4 2.0 N     6.21
2010-Nov-29 17:01:13 990.600 0.5 93 -0.5     1.03 1.03 7.25
2010-Nov-29 18:01:14 991.000 0.7 93 -0.3       1.03 7.25
2010-Nov-29 19:01:14 991.000 0.1 93 -0.9     0.51 1.55 7.77
2010-Nov-29 20:01:11 991.500 0.1 94 -0.8       1.55 7.77
2010-Nov-29 21:01:14 991.400 0.1 94 -0.8     0.51 2.07 8.28
2010-Nov-29 22:01:13 991.100 0.1 94 -0.8       2.07 8.28
2010-Nov-29 23:01:14 991.400 0.2 94 -0.7       2.07 8.28

Temperatura Máxima:    Temperatura Mínima:
Presión Máxima:998.800 Hpa    Presión Mínima:990.400 Hpa


Volver